WetterOnline ( http://www.wetteronline.de )

Wetter aktuell Lüchow

Aktuelles Wetter: Lüchow (18m)

6-stündlich | Neueste Meldungen
Ortszeit Temperatur Wetter
Sa, 20.10. 14:00 12.6° C bedeckt
Sa, 20.10. 8:00 3.0° C wolkenlos
Sa, 20.10. 2:00 2.9° C bewölkt
Fr, 19.10. 20:00 4.8° C wolkig
Fr, 19.10. 14:00 12.7° C wolkenlos
Fr, 19.10. 8:00 -1.0° C Nebel
Fr, 19.10. 2:00 2.9° C wolkenlos
Do, 18.10. 20:00 12.5° C wolkig
Ortszeit Temperatur Wetter
Sa, 20.10. 16:30 13.7° C bedeckt
Sa, 20.10. 16:20 13.7° C bedeckt
Sa, 20.10. 16:10 13.7° C bedeckt
Sa, 20.10. 16:00 13.9° C bedeckt
Sa, 20.10. 15:50 13.9° C bedeckt
Sa, 20.10. 15:40 13.7° C bedeckt
Sa, 20.10. 15:30 13.6° C bewölkt
Sa, 20.10. 15:00 14.0° C bewölkt
Sa, 20.10. 14:30 12.9° C bedeckt
Sa, 20.10. 14:00 12.6° C bedeckt
Sa, 20.10. 13:30 13.0° C bedeckt
Ortszeit Relative Feuchte Sichtweite
Sa, 20.10. 14:00 56% 45 km
Sa, 20.10. 8:00 98% 11 km
Sa, 20.10. 2:00 95% 10 km
Fr, 19.10. 20:00 87% 25 km
Fr, 19.10. 14:00 53% 18 km
Fr, 19.10. 8:00 99% 0.3 km
Fr, 19.10. 2:00 99% 11 km
Do, 18.10. 20:00 74% 45 km
Ortszeit Relative Feuchte Sichtweite
Sa, 20.10. 16:30 58% 45 km
Sa, 20.10. 16:20 58% -
Sa, 20.10. 16:10 58% -
Sa, 20.10. 16:00 57% 40 km
Sa, 20.10. 15:50 57% -
Sa, 20.10. 15:40 57% -
Sa, 20.10. 15:30 56% 45 km
Sa, 20.10. 15:00 55% 22 km
Sa, 20.10. 14:30 55% 40 km
Sa, 20.10. 14:00 56% 45 km
Sa, 20.10. 13:30 54% 25 km
Ortszeit Niederschlagsmenge Niederschlagsart
Sa, 20.10. 14:00 0.0 l/m2 in 6 Std. -
Sa, 20.10. 8:00 0.0 l/m2 in 12 Std. -
Sa, 20.10. 2:00 0.0 l/m2 in 6 Std. -
Fr, 19.10. 20:00 0.0 l/m2 in 12 Std. -
Fr, 19.10. 14:00 0.0 l/m2 in 6 Std. -
Fr, 19.10. 8:00 0.0 l/m2 in 12 Std. -
Fr, 19.10. 2:00 0.0 l/m2 in 6 Std. -
Do, 18.10. 20:00 0.0 l/m2 in 12 Std. -
Ortszeit Niederschlagsmenge Niederschlagsart
Sa, 20.10. 16:30 0.0 l/m2 in 1 Std. -
Sa, 20.10. 16:20 keine Meldung -
Sa, 20.10. 16:10 keine Meldung -
Sa, 20.10. 16:00 0.0 l/m2 in 1 Std. -
Sa, 20.10. 15:50 keine Meldung -
Sa, 20.10. 15:40 keine Meldung -
Sa, 20.10. 15:30 0.0 l/m2 in 1 Std. -
Sa, 20.10. 15:00 0.0 l/m2 in 1 Std. -
Sa, 20.10. 14:30 0.0 l/m2 in 1 Std. -
Sa, 20.10. 14:00 0.0 l/m2 in 1 Std. -
Sa, 20.10. 13:30 0.0 l/m2 in 1 Std. -
Ortszeit Stärke Spitze Richtung
km/h Bft. km/h Grad Sektor
Sa, 20.10. 14:00 13 3 22 240° SW
Sa, 20.10. 8:00 6 1 7 200° S
Sa, 20.10. 2:00 0 0 7 - -
Fr, 19.10. 20:00 0 0 22 - -
Fr, 19.10. 14:00 13 3 20 20° N
Fr, 19.10. 8:00 0 0 4 - -
Fr, 19.10. 2:00 0 0 14 - -
Do, 18.10. 20:00 11 2 25 360° N
Ortszeit Stärke Spitze Richtung
km/h Bft. km/h Grad Sektor
Sa, 20.10. 16:30 11 2 25 270° W
Sa, 20.10. 16:20 11 2 - 270° W
Sa, 20.10. 16:10 11 2 - 270° W
Sa, 20.10. 16:00 11 2 22 250° W
Sa, 20.10. 15:50 11 2 - 250° W
Sa, 20.10. 15:40 7 2 - 250° W
Sa, 20.10. 15:30 9 2 22 250° W
Sa, 20.10. 15:00 11 2 22 270° W
Sa, 20.10. 14:30 11 2 17 240° SW
Sa, 20.10. 14:00 13 3 22 240° SW
Sa, 20.10. 13:30 13 3 22 250° W
Ortszeit Untergrenze Bedeckung Gattung
total tief tief mittel hoch
Sa, 20.10. 14:00 930 m 8/8 8/8 - - -
Sa, 20.10. 8:00 - 0/8 0/8 - - -
Sa, 20.10. 2:00 1170 m 8/8 7/8 - - -
Fr, 19.10. 20:00 9000 m 8/8 0/8 - - -
Fr, 19.10. 14:00 - 0/8 0/8 - - -
Fr, 19.10. 8:00 <30 m 8/8 8/8 - - -
Fr, 19.10. 2:00 - 0/8 0/8 - - -
Do, 18.10. 20:00 1500 m 6/8 6/8 - - -
Ortszeit Bedeckungsgrad in Achtel und Wolkenuntergrenze
Sa, 20.10. 16:30 3(1020m) 8(1800m)
Sa, 20.10. 16:20 3(1020m) 8(1800m)
Sa, 20.10. 16:10 5(1050m) 8(1800m)
Sa, 20.10. 16:00 4(1080m) 8(1800m)
Sa, 20.10. 15:50 4(1080m) 8(1800m)
Sa, 20.10. 15:40 4(1110m) 8(1800m)
Sa, 20.10. 15:30 7(1800m)
Sa, 20.10. 15:00 5(960m) 7(1800m)
Sa, 20.10. 14:30 8(930m) 8(1320m)
Sa, 20.10. 14:00 7(930m) 8(1260m)
Sa, 20.10. 13:30 7(870m) 8(1050m) 8(1230m)
Ortszeit Luftdruck NN (hPa) Tendenz (hPa in 3 Std.)
Sa, 20.10. 14:00 1030 + 0,1
Sa, 20.10. 8:00 1029 + 1,1
Sa, 20.10. 2:00 1027 + 0,3
Fr, 19.10. 20:00 1026 + 1,0
Fr, 19.10. 14:00 1027 - 0,8
Fr, 19.10. 8:00 1026 + 0,4
Fr, 19.10. 2:00 1026 + 0,2
Do, 18.10. 20:00 1025 + 1,9
Ortszeit Luftdruck NN (hPa) Tendenz (hPa in 3 Std.)
Sa, 20.10. 16:30 1029 - 0,5
Sa, 20.10. 16:20 1029 keine Meldung
Sa, 20.10. 16:10 1029 keine Meldung
Sa, 20.10. 16:00 1029 - 0,8
Sa, 20.10. 15:50 1029 keine Meldung
Sa, 20.10. 15:40 1029 keine Meldung
Sa, 20.10. 15:30 1029 - 0,8
Sa, 20.10. 15:00 1029 - 0,6
Sa, 20.10. 14:30 1029 - 0,5
Sa, 20.10. 14:00 1030 + 0,1
Sa, 20.10. 13:30 1030 0,0
Ortszeit Schneehöhe (cm)
Sa, 20.10. 14:00 0
Sa, 20.10. 8:00 0
Sa, 20.10. 2:00 0
Fr, 19.10. 20:00 0
Fr, 19.10. 14:00 0
Fr, 19.10. 8:00 0
Fr, 19.10. 2:00 0
Do, 18.10. 20:00 0
Ortszeit Schneehöhe (cm)
Sa, 20.10. 16:30 0
Sa, 20.10. 16:20 0
Sa, 20.10. 16:10 0
Sa, 20.10. 16:00 0
Sa, 20.10. 15:50 0
Sa, 20.10. 15:40 0
Sa, 20.10. 15:30 0
Sa, 20.10. 15:00 0
Sa, 20.10. 14:30 0
Sa, 20.10. 14:00 0
Sa, 20.10. 13:30 0
Link zu dieser Seite / Seite empfehlen

Das Wetter in ...